Time,TemperatureF,DewpointF,PressureIn,WindDirection,WindDirectionDegrees,WindSpeedMPH,WindSpeedGustMPH,Humidity,HourlyPrecipIn,Conditions,Clouds,dailyrainin,SoftwareType,DateUTC
2013-06-30 00:01:00,72.8,68.3,29.46,North,-999,-999.0,-999.0,87,-99.99,,,-99.99,,2013-06-30 04:01:00,
2013-06-30 00:06:00,72.8,68.6,29.46,North,-999,-999.0,-999.0,88,-99.99,,,-99.99,,2013-06-30 04:06:00,
2013-06-30 00:11:00,72.8,68.6,29.47,North,-999,-999.0,-999.0,88,-99.99,,,-99.99,,2013-06-30 04:11:00,
2013-06-30 00:16:00,72.8,68.9,29.47,North,-999,-999.0,-999.0,88,-99.99,,,-99.99,,2013-06-30 04:16:00,
2013-06-30 00:21:00,72.8,69.1,29.48,North,-999,-999.0,-999.0,89,-99.99,,,-99.99,,2013-06-30 04:21:00,
2013-06-30 00:26:00,72.8,69.1,29.48,North,-999,-999.0,-999.0,89,-99.99,,,-99.99,,2013-06-30 04:26:00,
2013-06-30 00:31:00,73.0,69.1,29.47,North,-999,-999.0,-999.0,89,-99.99,,,-99.99,,2013-06-30 04:31:00,
2013-06-30 00:36:00,73.2,69.1,29.47,North,-999,-999.0,-999.0,88,-99.99,,,-99.99,,2013-06-30 04:36:00,
2013-06-30 00:41:00,73.2,69.1,29.46,North,-999,-999.0,-999.0,88,-99.99,,,-99.99,,2013-06-30 04:41:00,
2013-06-30 00:46:00,73.2,69.1,29.46,North,-999,-999.0,-999.0,88,-99.99,,,-99.99,,2013-06-30 04:46:00,
2013-06-30 00:51:00,73.0,69.2,29.47,North,-999,-999.0,-999.0,89,-99.99,,,-99.99,,2013-06-30 04:51:00,
2013-06-30 00:56:00,72.8,68.9,29.47,North,-999,-999.0,-999.0,88,-99.99,,,-99.99,,2013-06-30 04:56:00,
2013-06-30 01:01:00,72.6,68.8,29.47,North,-999,-999.0,-999.0,89,-99.99,,,-99.99,,2013-06-30 05:01:00,
2013-06-30 01:06:00,72.6,68.8,29.47,North,-999,-999.0,-999.0,89,-99.99,,,-99.99,,2013-06-30 05:06:00,
2013-06-30 01:11:00,72.6,68.7,29.47,North,-999,-999.0,-999.0,89,-99.99,,,-99.99,,2013-06-30 05:11:00,
2013-06-30 01:16:00,72.5,68.6,29.47,North,-999,-999.0,-999.0,89,-99.99,,,-99.99,,2013-06-30 05:16:00,
2013-06-30 01:21:00,72.5,68.4,29.47,North,-999,-999.0,-999.0,88,-99.99,,,-99.99,,2013-06-30 05:21:00,
2013-06-30 01:26:00,72.6,68.7,29.47,North,-999,-999.0,-999.0,89,-99.99,,,-99.99,,2013-06-30 05:26:00,
2013-06-30 01:31:00,72.5,68.5,29.47,North,-999,-999.0,-999.0,88,-99.99,,,-99.99,,2013-06-30 05:31:00,
2013-06-30 01:36:00,72.3,68.4,29.47,North,-999,-999.0,-999.0,89,-99.99,,,-99.99,,2013-06-30 05:36:00,
2013-06-30 01:41:00,72.3,68.6,29.47,North,-999,-999.0,-999.0,89,-99.99,,,-99.99,,2013-06-30 05:41:00,
2013-06-30 01:46:00,72.3,68.7,29.47,North,-999,-999.0,-999.0,89,-99.99,,,-99.99,,2013-06-30 05:46:00,
2013-06-30 01:51:00,72.3,68.6,29.47,North,-999,-999.0,-999.0,89,-99.99,,,-99.99,,2013-06-30 05:51:00,
2013-06-30 01:56:00,72.5,68.8,29.47,North,-999,-999.0,-999.0,89,-99.99,,,-99.99,,2013-06-30 05:56:00,
2013-06-30 02:01:00,72.3,68.6,29.47,North,-999,-999.0,-999.0,89,-99.99,,,-99.99,,2013-06-30 06:01:00,
2013-06-30 02:06:00,72.3,68.6,29.47,North,-999,-999.0,-999.0,89,-99.99,,,-99.99,,2013-06-30 06:06:00,
2013-06-30 02:11:00,72.3,68.5,29.47,North,-999,-999.0,-999.0,89,-99.99,,,-99.99,,2013-06-30 06:11:00,
2013-06-30 02:16:00,72.1,68.3,29.47,North,-999,-999.0,-999.0,89,-99.99,,,-99.99,,2013-06-30 06:16:00,
2013-06-30 02:21:00,71.9,68.2,29.47,North,-999,-999.0,-999.0,89,-99.99,,,-99.99,,2013-06-30 06:21:00,
2013-06-30 02:26:00,71.7,68.1,29.47,North,-999,-999.0,-999.0,89,-99.99,,,-99.99,,2013-06-30 06:26:00,
2013-06-30 02:31:00,71.7,68.1,29.47,North,-999,-999.0,-999.0,90,-99.99,,,-99.99,,2013-06-30 06:31:00,
2013-06-30 02:36:00,71.7,68.2,29.47,North,-999,-999.0,-999.0,90,-99.99,,,-99.99,,2013-06-30 06:36:00,
2013-06-30 02:41:00,71.7,68.2,29.48,North,-999,-999.0,-999.0,90,-99.99,,,-99.99,,2013-06-30 06:41:00,
2013-06-30 02:46:00,71.7,68.2,29.48,North,-999,-999.0,-999.0,90,-99.99,,,-99.99,,2013-06-30 06:46:00,
2013-06-30 02:51:00,71.7,68.2,29.48,North,-999,-999.0,-999.0,90,-99.99,,,-99.99,,2013-06-30 06:51:00,
2013-06-30 02:56:00,71.7,68.3,29.47,North,-999,-999.0,-999.0,90,-99.99,,,-99.99,,2013-06-30 06:56:00,
2013-06-30 03:01:00,71.9,68.4,29.47,North,-999,-999.0,-999.0,90,-99.99,,,-99.99,,2013-06-30 07:01:00,
2013-06-30 03:06:00,71.7,68.3,29.47,North,-999,-999.0,-999.0,90,-99.99,,,-99.99,,2013-06-30 07:06:00,
2013-06-30 03:11:00,71.6,68.2,29.47,North,-999,-999.0,-999.0,90,-99.99,,,-99.99,,2013-06-30 07:11:00,
2013-06-30 03:16:00,71.6,68.3,29.46,North,-999,-999.0,-999.0,90,-99.99,,,-99.99,,2013-06-30 07:16:00,
2013-06-30 03:21:00,71.6,68.2,29.46,North,-999,-999.0,-999.0,90,-99.99,,,-99.99,,2013-06-30 07:21:00,
2013-06-30 03:26:00,71.6,68.2,29.46,North,-999,-999.0,-999.0,90,-99.99,,,-99.99,,2013-06-30 07:26:00,
2013-06-30 03:31:00,71.6,68.4,29.47,North,-999,-999.0,-999.0,90,-99.99,,,-99.99,,2013-06-30 07:31:00,
2013-06-30 03:36:00,71.6,68.3,29.46,North,-999,-999.0,-999.0,90,-99.99,,,-99.99,,2013-06-30 07:36:00,
2013-06-30 03:41:00,71.6,68.3,29.46,North,-999,-999.0,-999.0,90,-99.99,,,-99.99,,2013-06-30 07:41:00,
2013-06-30 03:46:00,71.6,68.3,29.46,North,-999,-999.0,-999.0,90,-99.99,,,-99.99,,2013-06-30 07:46:00,
2013-06-30 03:51:00,71.4,68.1,29.47,North,-999,-999.0,-999.0,90,-99.99,,,-99.99,,2013-06-30 07:51:00,
2013-06-30 03:56:00,71.4,68.1,29.47,North,-999,-999.0,-999.0,90,-99.99,,,-99.99,,2013-06-30 07:56:00,
2013-06-30 04:01:00,71.4,68.0,29.47,North,-999,-999.0,-999.0,90,-99.99,,,-99.99,,2013-06-30 08:01:00,
2013-06-30 04:06:00,71.4,68.2,29.47,North,-999,-999.0,-999.0,91,-99.99,,,-99.99,,2013-06-30 08:06:00,
2013-06-30 04:11:00,71.0,67.8,29.47,North,-999,-999.0,-999.0,90,-99.99,,,-99.99,,2013-06-30 08:11:00,
2013-06-30 04:16:00,71.0,67.7,29.47,North,-999,-999.0,-999.0,90,-99.99,,,-99.99,,2013-06-30 08:16:00,
2013-06-30 04:21:00,71.2,67.9,29.47,North,-999,-999.0,-999.0,90,-99.99,,,-99.99,,2013-06-30 08:21:00,
2013-06-30 04:26:00,71.4,68.0,29.47,North,-999,-999.0,-999.0,90,-99.99,,,-99.99,,2013-06-30 08:26:00,
2013-06-30 04:31:00,71.2,67.8,29.47,North,-999,-999.0,-999.0,90,-99.99,,,-99.99,,2013-06-30 08:31:00,
2013-06-30 04:36:00,71.2,67.8,29.47,North,-999,-999.0,-999.0,90,-99.99,,,-99.99,,2013-06-30 08:36:00,
2013-06-30 04:41:00,71.2,67.9,29.47,North,-999,-999.0,-999.0,90,-99.99,,,-99.99,,2013-06-30 08:41:00,
2013-06-30 04:46:00,71.0,67.7,29.47,North,-999,-999.0,-999.0,90,-99.99,,,-99.99,,2013-06-30 08:46:00,
2013-06-30 04:51:00,71.0,67.7,29.47,North,-999,-999.0,-999.0,90,-99.99,,,-99.99,,2013-06-30 08:51:00,
2013-06-30 04:56:00,71.0,67.7,29.47,North,-999,-999.0,-999.0,90,-99.99,,,-99.99,,2013-06-30 08:56:00,
2013-06-30 05:01:00,70.8,67.5,29.48,North,-999,-999.0,-999.0,90,-99.99,,,-99.99,,2013-06-30 09:01:00,
2013-06-30 05:06:00,71.0,67.8,29.48,North,-999,-999.0,-999.0,91,-99.99,,,-99.99,,2013-06-30 09:06:00,
2013-06-30 05:11:00,70.8,67.6,29.48,North,-999,-999.0,-999.0,90,-99.99,,,-99.99,,2013-06-30 09:11:00,
2013-06-30 05:16:00,70.8,67.6,29.48,North,-999,-999.0,-999.0,91,-99.99,,,-99.99,,2013-06-30 09:16:00,
2013-06-30 05:21:00,70.8,67.6,29.49,North,-999,-999.0,-999.0,91,-99.99,,,-99.99,,2013-06-30 09:21:00,
2013-06-30 05:26:00,70.8,67.6,29.49,North,-999,-999.0,-999.0,91,-99.99,,,-99.99,,2013-06-30 09:26:00,
2013-06-30 05:31:00,70.7,67.5,29.50,North,-999,-999.0,-999.0,91,-99.99,,,-99.99,,2013-06-30 09:31:00,
2013-06-30 05:36:00,70.7,67.4,29.49,North,-999,-999.0,-999.0,90,-99.99,,,-99.99,,2013-06-30 09:36:00,
2013-06-30 05:41:00,70.7,67.4,29.50,North,-999,-999.0,-999.0,90,-99.99,,,-99.99,,2013-06-30 09:41:00,
2013-06-30 05:46:00,70.3,67.1,29.50,North,-999,-999.0,-999.0,91,-99.99,,,-99.99,,2013-06-30 09:46:00,
2013-06-30 05:51:00,70.5,67.3,29.50,North,-999,-999.0,-999.0,91,-99.99,,,-99.99,,2013-06-30 09:51:00,
2013-06-30 05:56:00,70.5,67.2,29.50,North,-999,-999.0,-999.0,90,-99.99,,,-99.99,,2013-06-30 09:56:00,
2013-06-30 06:01:00,70.5,67.3,29.50,North,-999,-999.0,-999.0,91,-99.99,,,-99.99,,2013-06-30 10:01:00,
2013-06-30 06:06:00,70.5,67.4,29.51,North,-999,-999.0,-999.0,91,-99.99,,,-99.99,,2013-06-30 10:06:00,
2013-06-30 06:11:00,70.5,67.4,29.51,North,-999,-999.0,-999.0,91,-99.99,,,-99.99,,2013-06-30 10:11:00,
2013-06-30 06:16:00,70.5,67.4,29.51,North,-999,-999.0,-999.0,91,-99.99,,,-99.99,,2013-06-30 10:16:00,
2013-06-30 06:21:00,70.3,67.2,29.51,North,-999,-999.0,-999.0,91,-99.99,,,-99.99,,2013-06-30 10:21:00,
2013-06-30 06:26:00,70.3,67.3,29.51,North,-999,-999.0,-999.0,91,-99.99,,,-99.99,,2013-06-30 10:26:00,
2013-06-30 06:31:00,70.3,67.3,29.51,North,-999,-999.0,-999.0,91,-99.99,,,-99.99,,2013-06-30 10:31:00,
2013-06-30 06:36:00,70.3,67.3,29.51,North,-999,-999.0,-999.0,91,-99.99,,,-99.99,,2013-06-30 10:36:00,
2013-06-30 06:41:00,70.3,67.2,29.52,North,-999,-999.0,-999.0,91,-99.99,,,-99.99,,2013-06-30 10:41:00,
2013-06-30 06:46:00,70.3,67.3,29.52,North,-999,-999.0,-999.0,91,-99.99,,,-99.99,,2013-06-30 10:46:00,
2013-06-30 06:51:00,70.5,67.5,29.52,North,-999,-999.0,-999.0,91,-99.99,,,-99.99,,2013-06-30 10:51:00,
2013-06-30 06:56:00,70.7,67.6,29.52,North,-999,-999.0,-999.0,91,-99.99,,,-99.99,,2013-06-30 10:56:00,
2013-06-30 07:01:00,70.7,67.7,29.52,North,-999,-999.0,-999.0,91,-99.99,,,-99.99,,2013-06-30 11:01:00,
2013-06-30 07:06:00,70.7,67.6,29.53,North,-999,-999.0,-999.0,91,-99.99,,,-99.99,,2013-06-30 11:06:00,
2013-06-30 07:11:00,70.8,67.8,29.52,North,-999,-999.0,-999.0,91,-99.99,,,-99.99,,2013-06-30 11:11:00,
2013-06-30 07:17:00,71.0,68.0,29.53,North,-999,-999.0,-999.0,91,-99.99,,,-99.99,,2013-06-30 11:17:00,
2013-06-30 07:22:00,71.2,68.1,29.53,North,-999,-999.0,-999.0,91,-99.99,,,-99.99,,2013-06-30 11:22:00,
2013-06-30 07:27:00,71.4,68.2,29.53,North,-999,-999.0,-999.0,91,-99.99,,,-99.99,,2013-06-30 11:27:00,
2013-06-30 07:32:00,71.6,68.3,29.53,North,-999,-999.0,-999.0,90,-99.99,,,-99.99,,2013-06-30 11:32:00,
2013-06-30 07:37:00,71.7,68.2,29.53,North,-999,-999.0,-999.0,90,-99.99,,,-99.99,,2013-06-30 11:37:00,
2013-06-30 07:42:00,71.7,68.1,29.53,North,-999,-999.0,-999.0,89,-99.99,,,-99.99,,2013-06-30 11:42:00,
2013-06-30 07:47:00,71.7,68.1,29.53,North,-999,-999.0,-999.0,90,-99.99,,,-99.99,,2013-06-30 11:47:00,
2013-06-30 07:52:00,71.7,68.2,29.54,North,-999,-999.0,-999.0,90,-99.99,,,-99.99,,2013-06-30 11:52:00,
2013-06-30 07:57:00,72.1,68.5,29.54,North,-999,-999.0,-999.0,89,-99.99,,,-99.99,,2013-06-30 11:57:00,
2013-06-30 08:02:00,72.1,68.4,29.54,North,-999,-999.0,-999.0,89,-99.99,,,-99.99,,2013-06-30 12:02:00,
2013-06-30 08:07:00,72.3,68.7,29.54,North,-999,-999.0,-999.0,90,-99.99,,,-99.99,,2013-06-30 12:07:00,
2013-06-30 08:12:00,72.3,68.8,29.54,North,-999,-999.0,-999.0,90,-99.99,,,-99.99,,2013-06-30 12:12:00,
2013-06-30 08:17:00,72.5,68.9,29.54,North,-999,-999.0,-999.0,90,-99.99,,,-99.99,,2013-06-30 12:17:00,
2013-06-30 08:22:00,72.6,69.0,29.54,North,-999,-999.0,-999.0,90,-99.99,,,-99.99,,2013-06-30 12:22:00,
2013-06-30 08:27:00,72.6,68.8,29.54,North,-999,-999.0,-999.0,89,-99.99,,,-99.99,,2013-06-30 12:27:00,
2013-06-30 08:32:00,72.6,68.8,29.54,North,-999,-999.0,-999.0,89,-99.99,,,-99.99,,2013-06-30 12:32:00,
2013-06-30 08:37:00,72.8,69.0,29.54,North,-999,-999.0,-999.0,89,-99.99,,,-99.99,,2013-06-30 12:37:00,
2013-06-30 08:42:00,73.0,69.2,29.54,North,-999,-999.0,-999.0,89,-99.99,,,-99.99,,2013-06-30 12:42:00,
2013-06-30 08:47:00,73.0,69.1,29.54,North,-999,-999.0,-999.0,88,-99.99,,,-99.99,,2013-06-30 12:47:00,
2013-06-30 08:52:00,73.0,68.9,29.54,North,-999,-999.0,-999.0,88,-99.99,,,-99.99,,2013-06-30 12:52:00,
2013-06-30 08:57:00,73.4,69.4,29.54,North,-999,-999.0,-999.0,88,-99.99,,,-99.99,,2013-06-30 12:57:00,
2013-06-30 09:02:00,73.7,69.6,29.54,North,-999,-999.0,-999.0,88,-99.99,,,-99.99,,2013-06-30 13:02:00,
2013-06-30 09:07:00,73.9,69.6,29.54,North,-999,-999.0,-999.0,87,-99.99,,,-99.99,,2013-06-30 13:07:00,
2013-06-30 09:12:00,74.3,69.8,29.54,North,-999,-999.0,-999.0,87,-99.99,,,-99.99,,2013-06-30 13:12:00,
2013-06-30 09:17:00,74.4,70.0,29.54,North,-999,-999.0,-999.0,87,-99.99,,,-99.99,,2013-06-30 13:17:00,
2013-06-30 09:22:00,74.6,70.3,29.54,North,-999,-999.0,-999.0,87,-99.99,,,-99.99,,2013-06-30 13:22:00,
2013-06-30 09:27:00,74.8,70.2,29.54,North,-999,-999.0,-999.0,87,-99.99,,,-99.99,,2013-06-30 13:27:00,
2013-06-30 09:32:00,75.0,70.3,29.54,North,-999,-999.0,-999.0,86,-99.99,,,-99.99,,2013-06-30 13:32:00,
2013-06-30 09:37:00,75.2,70.4,29.53,North,-999,-999.0,-999.0,86,-99.99,,,-99.99,,2013-06-30 13:37:00,
2013-06-30 09:42:00,75.2,70.5,29.54,North,-999,-999.0,-999.0,86,-99.99,,,-99.99,,2013-06-30 13:42:00,
2013-06-30 09:47:00,75.2,70.5,29.54,North,-999,-999.0,-999.0,86,-99.99,,,-99.99,,2013-06-30 13:47:00,
2013-06-30 09:52:00,75.2,70.5,29.53,North,-999,-999.0,-999.0,86,-99.99,,,-99.99,,2013-06-30 13:52:00,
2013-06-30 09:57:00,75.5,70.9,29.53,North,-999,-999.0,-999.0,87,-99.99,,,-99.99,,2013-06-30 13:57:00,
2013-06-30 10:02:00,75.3,70.6,29.53,North,-999,-999.0,-999.0,86,-99.99,,,-99.99,,2013-06-30 14:02:00,
2013-06-30 10:07:00,75.5,71.0,29.54,North,-999,-999.0,-999.0,87,-99.99,,,-99.99,,2013-06-30 14:07:00,
2013-06-30 10:12:00,75.5,71.0,29.54,North,-999,-999.0,-999.0,87,-99.99,,,-99.99,,2013-06-30 14:12:00,
2013-06-30 10:17:00,75.7,71.2,29.54,North,-999,-999.0,-999.0,87,-99.99,,,-99.99,,2013-06-30 14:17:00,
2013-06-30 10:22:00,75.5,70.9,29.54,North,-999,-999.0,-999.0,87,-99.99,,,-99.99,,2013-06-30 14:22:00,
2013-06-30 10:27:00,76.1,71.4,29.54,North,-999,-999.0,-999.0,86,-99.99,,,-99.99,,2013-06-30 14:27:00,
2013-06-30 10:32:00,76.2,71.3,29.54,North,-999,-999.0,-999.0,86,-99.99,,,-99.99,,2013-06-30 14:32:00,
2013-06-30 10:37:00,76.6,71.9,29.53,North,-999,-999.0,-999.0,86,-99.99,,,-99.99,,2013-06-30 14:37:00,
2013-06-30 10:42:00,77.0,72.2,29.53,North,-999,-999.0,-999.0,86,-99.99,,,-99.99,,2013-06-30 14:42:00,
2013-06-30 10:47:00,77.9,72.9,29.53,North,-999,-999.0,-999.0,86,-99.99,,,-99.99,,2013-06-30 14:47:00,
2013-06-30 10:52:00,78.6,72.3,29.53,North,-999,-999.0,-999.0,82,-99.99,,,-99.99,,2013-06-30 14:52:00,
2013-06-30 10:57:00,78.9,72.4,29.53,North,-999,-999.0,-999.0,81,-99.99,,,-99.99,,2013-06-30 14:57:00,
2013-06-30 11:02:00,78.9,72.6,29.53,North,-999,-999.0,-999.0,82,-99.99,,,-99.99,,2013-06-30 15:02:00,
2013-06-30 11:07:00,79.1,72.4,29.53,North,-999,-999.0,-999.0,81,-99.99,,,-99.99,,2013-06-30 15:07:00,
2013-06-30 11:12:00,79.1,72.2,29.53,North,-999,-999.0,-999.0,80,-99.99,,,-99.99,,2013-06-30 15:12:00,
2013-06-30 11:17:00,79.5,72.2,29.53,North,-999,-999.0,-999.0,79,-99.99,,,-99.99,,2013-06-30 15:17:00,
2013-06-30 11:22:00,79.7,72.3,29.53,North,-999,-999.0,-999.0,79,-99.99,,,-99.99,,2013-06-30 15:22:00,
2013-06-30 11:27:00,79.7,72.5,29.52,North,-999,-999.0,-999.0,79,-99.99,,,-99.99,,2013-06-30 15:27:00,
2013-06-30 11:32:00,79.8,72.2,29.52,North,-999,-999.0,-999.0,78,-99.99,,,-99.99,,2013-06-30 15:32:00,
2013-06-30 11:37:00,79.8,72.4,29.52,North,-999,-999.0,-999.0,79,-99.99,,,-99.99,,2013-06-30 15:37:00,
2013-06-30 11:42:00,80.0,72.9,29.52,North,-999,-999.0,-999.0,80,-99.99,,,-99.99,,2013-06-30 15:42:00,
2013-06-30 11:47:00,80.4,72.9,29.52,North,-999,-999.0,-999.0,79,-99.99,,,-99.99,,2013-06-30 15:47:00,
2013-06-30 11:52:00,80.9,73.6,29.52,North,-999,-999.0,-999.0,79,-99.99,,,-99.99,,2013-06-30 15:52:00,
2013-06-30 11:57:00,81.5,73.4,29.51,North,-999,-999.0,-999.0,77,-99.99,,,-99.99,,2013-06-30 15:57:00,
2013-06-30 12:02:00,82.0,73.2,29.51,North,-999,-999.0,-999.0,75,-99.99,,,-99.99,,2013-06-30 16:02:00,
2013-06-30 12:07:00,81.8,73.4,29.51,North,-999,-999.0,-999.0,76,-99.99,,,-99.99,,2013-06-30 16:07:00,
2013-06-30 12:12:00,81.8,73.7,29.51,North,-999,-999.0,-999.0,77,-99.99,,,-99.99,,2013-06-30 16:12:00,
2013-06-30 12:17:00,82.2,74.1,29.51,North,-999,-999.0,-999.0,77,-99.99,,,-99.99,,2013-06-30 16:17:00,
2013-06-30 12:22:00,82.0,74.0,29.51,North,-999,-999.0,-999.0,77,-99.99,,,-99.99,,2013-06-30 16:22:00,
2013-06-30 12:27:00,82.4,74.0,29.51,North,-999,-999.0,-999.0,76,-99.99,,,-99.99,,2013-06-30 16:27:00,
2013-06-30 12:32:00,82.4,73.8,29.51,North,-999,-999.0,-999.0,76,-99.99,,,-99.99,,2013-06-30 16:32:00,
2013-06-30 12:37:00,82.2,74.1,29.51,North,-999,-999.0,-999.0,77,-99.99,,,-99.99,,2013-06-30 16:37:00,
2013-06-30 12:42:00,82.2,73.6,29.51,North,-999,-999.0,-999.0,76,-99.99,,,-99.99,,2013-06-30 16:42:00,
2013-06-30 12:47:00,82.5,74.6,29.50,North,-999,-999.0,-999.0,77,-99.99,,,-99.99,,2013-06-30 16:47:00,
2013-06-30 12:52:00,82.7,74.2,29.50,North,-999,-999.0,-999.0,76,-99.99,,,-99.99,,2013-06-30 16:52:00,
2013-06-30 12:57:00,83.3,74.5,29.50,North,-999,-999.0,-999.0,75,-99.99,,,-99.99,,2013-06-30 16:57:00,
2013-06-30 13:02:00,83.8,75.2,29.50,North,-999,-999.0,-999.0,75,-99.99,,,-99.99,,2013-06-30 17:02:00,
2013-06-30 13:07:00,84.0,74.4,29.50,North,-999,-999.0,-999.0,73,-99.99,,,-99.99,,2013-06-30 17:07:00,
2013-06-30 13:12:00,84.0,74.9,29.50,North,-999,-999.0,-999.0,74,-99.99,,,-99.99,,2013-06-30 17:12:00,
2013-06-30 13:17:00,84.0,74.4,29.50,North,-999,-999.0,-999.0,73,-99.99,,,-99.99,,2013-06-30 17:17:00,
2013-06-30 13:22:00,83.6,74.2,29.50,North,-999,-999.0,-999.0,73,-99.99,,,-99.99,,2013-06-30 17:22:00,
2013-06-30 13:27:00,83.3,74.6,29.50,North,-999,-999.0,-999.0,75,-99.99,,,-99.99,,2013-06-30 17:27:00,
2013-06-30 13:32:00,84.0,73.9,29.50,North,-999,-999.0,-999.0,71,-99.99,,,-99.99,,2013-06-30 17:32:00,
2013-06-30 13:37:00,84.9,75.4,29.49,North,-999,-999.0,-999.0,73,-99.99,,,-99.99,,2013-06-30 17:37:00,
2013-06-30 13:42:00,84.9,74.4,29.49,North,-999,-999.0,-999.0,70,-99.99,,,-99.99,,2013-06-30 17:42:00,
2013-06-30 13:47:00,84.7,74.3,29.49,North,-999,-999.0,-999.0,71,-99.99,,,-99.99,,2013-06-30 17:47:00,
2013-06-30 13:52:00,84.9,74.5,29.49,North,-999,-999.0,-999.0,71,-99.99,,,-99.99,,2013-06-30 17:52:00,
2013-06-30 13:57:00,85.1,74.3,29.49,North,-999,-999.0,-999.0,69,-99.99,,,-99.99,,2013-06-30 17:57:00,
2013-06-30 14:02:00,84.9,74.5,29.49,North,-999,-999.0,-999.0,71,-99.99,,,-99.99,,2013-06-30 18:02:00,
2013-06-30 14:07:00,85.2,74.8,29.48,North,-999,-999.0,-999.0,70,-99.99,,,-99.99,,2013-06-30 18:07:00,
2013-06-30 14:12:00,85.6,74.8,29.48,North,-999,-999.0,-999.0,70,-99.99,,,-99.99,,2013-06-30 18:12:00,
2013-06-30 14:17:00,86.0,75.3,29.48,North,-999,-999.0,-999.0,70,-99.99,,,-99.99,,2013-06-30 18:17:00,
2013-06-30 14:22:00,86.1,75.0,29.48,North,-999,-999.0,-999.0,68,-99.99,,,-99.99,,2013-06-30 18:22:00,
2013-06-30 14:23:00,86.3,75.5,29.48,North,-999,-999.0,-999.0,69,-99.99,,,-99.99,,2013-06-30 18:23:00,
2013-06-30 14:28:00,86.0,74.7,29.47,North,-999,-999.0,-999.0,68,-99.99,,,-99.99,,2013-06-30 18:28:00,
2013-06-30 14:33:00,85.2,74.3,29.48,North,-999,-999.0,-999.0,69,-99.99,,,-99.99,,2013-06-30 18:33:00,
2013-06-30 14:38:00,85.4,74.6,29.48,North,-999,-999.0,-999.0,69,-99.99,,,-99.99,,2013-06-30 18:38:00,
2013-06-30 14:43:00,86.1,74.3,29.48,North,-999,-999.0,-999.0,67,-99.99,,,-99.99,,2013-06-30 18:43:00,
2013-06-30 14:48:00,86.7,74.6,29.47,North,-999,-999.0,-999.0,66,-99.99,,,-99.99,,2013-06-30 18:48:00,
2013-06-30 14:53:00,87.0,74.5,29.47,North,-999,-999.0,-999.0,65,-99.99,,,-99.99,,2013-06-30 18:53:00,
2013-06-30 14:58:00,87.0,74.7,29.47,North,-999,-999.0,-999.0,65,-99.99,,,-99.99,,2013-06-30 18:58:00,
2013-06-30 15:03:00,86.9,74.7,29.47,North,-999,-999.0,-999.0,66,-99.99,,,-99.99,,2013-06-30 19:03:00,
2013-06-30 15:08:00,86.7,74.7,29.47,North,-999,-999.0,-999.0,66,-99.99,,,-99.99,,2013-06-30 19:08:00,
2013-06-30 15:13:00,86.5,74.9,29.47,North,-999,-999.0,-999.0,67,-99.99,,,-99.99,,2013-06-30 19:13:00,
2013-06-30 15:18:00,86.7,74.7,29.46,North,-999,-999.0,-999.0,66,-99.99,,,-99.99,,2013-06-30 19:18:00,
2013-06-30 15:23:00,87.0,75.0,29.47,North,-999,-999.0,-999.0,66,-99.99,,,-99.99,,2013-06-30 19:23:00,
2013-06-30 15:28:00,87.2,74.6,29.46,North,-999,-999.0,-999.0,65,-99.99,,,-99.99,,2013-06-30 19:28:00,
2013-06-30 15:33:00,87.0,74.6,29.46,North,-999,-999.0,-999.0,65,-99.99,,,-99.99,,2013-06-30 19:33:00,
2013-06-30 15:38:00,86.7,74.5,29.46,North,-999,-999.0,-999.0,66,-99.99,,,-99.99,,2013-06-30 19:38:00,
2013-06-30 15:43:00,86.7,74.4,29.46,North,-999,-999.0,-999.0,65,-99.99,,,-99.99,,2013-06-30 19:43:00,
2013-06-30 15:48:00,87.2,74.6,29.45,North,-999,-999.0,-999.0,64,-99.99,,,-99.99,,2013-06-30 19:48:00,
2013-06-30 15:53:00,87.0,74.5,29.45,North,-999,-999.0,-999.0,65,-99.99,,,-99.99,,2013-06-30 19:53:00,
2013-06-30 15:58:00,87.0,74.0,29.45,North,-999,-999.0,-999.0,63,-99.99,,,-99.99,,2013-06-30 19:58:00,
2013-06-30 16:03:00,87.0,74.2,29.45,North,-999,-999.0,-999.0,64,-99.99,,,-99.99,,2013-06-30 20:03:00,
2013-06-30 16:08:00,86.7,73.9,29.45,North,-999,-999.0,-999.0,64,-99.99,,,-99.99,,2013-06-30 20:08:00,
2013-06-30 16:13:00,86.3,74.0,29.45,North,-999,-999.0,-999.0,65,-99.99,,,-99.99,,2013-06-30 20:13:00,
2013-06-30 16:18:00,86.1,74.2,29.45,North,-999,-999.0,-999.0,66,-99.99,,,-99.99,,2013-06-30 20:18:00,
2013-06-30 16:23:00,85.4,73.5,29.46,North,-999,-999.0,-999.0,66,-99.99,,,-99.99,,2013-06-30 20:23:00,
2013-06-30 16:28:00,84.7,73.0,29.47,North,-999,-999.0,-999.0,67,-99.99,,,-99.99,,2013-06-30 20:28:00,
2013-06-30 16:33:00,84.3,73.1,29.47,North,-999,-999.0,-999.0,68,-99.99,,,-99.99,,2013-06-30 20:33:00,
2013-06-30 16:38:00,84.2,72.9,29.47,North,-999,-999.0,-999.0,68,-99.99,,,-99.99,,2013-06-30 20:38:00,
2013-06-30 16:43:00,84.2,73.3,29.47,North,-999,-999.0,-999.0,69,-99.99,,,-99.99,,2013-06-30 20:43:00,
2013-06-30 16:48:00,84.0,73.7,29.48,North,-999,-999.0,-999.0,71,-99.99,,,-99.99,,2013-06-30 20:48:00,
2013-06-30 16:53:00,84.0,73.8,29.48,North,-999,-999.0,-999.0,71,-99.99,,,-99.99,,2013-06-30 20:53:00,
2013-06-30 16:58:00,84.0,74.0,29.48,North,-999,-999.0,-999.0,72,-99.99,,,-99.99,,2013-06-30 20:58:00,
2013-06-30 17:03:00,83.8,73.2,29.48,North,-999,-999.0,-999.0,70,-99.99,,,-99.99,,2013-06-30 21:03:00,
2013-06-30 17:08:00,83.6,73.5,29.48,North,-999,-999.0,-999.0,71,-99.99,,,-99.99,,2013-06-30 21:08:00,
2013-06-30 17:13:00,83.6,73.8,29.48,North,-999,-999.0,-999.0,72,-99.99,,,-99.99,,2013-06-30 21:13:00,
2013-06-30 17:18:00,83.6,74.0,29.48,North,-999,-999.0,-999.0,73,-99.99,,,-99.99,,2013-06-30 21:18:00,
2013-06-30 17:23:00,83.6,73.8,29.48,North,-999,-999.0,-999.0,72,-99.99,,,-99.99,,2013-06-30 21:23:00,
2013-06-30 17:28:00,83.6,73.4,29.49,North,-999,-999.0,-999.0,71,-99.99,,,-99.99,,2013-06-30 21:28:00,
2013-06-30 17:33:00,84.0,74.1,29.49,North,-999,-999.0,-999.0,72,-99.99,,,-99.99,,2013-06-30 21:33:00,
2013-06-30 17:38:00,84.3,73.4,29.49,North,-999,-999.0,-999.0,69,-99.99,,,-99.99,,2013-06-30 21:38:00,
2013-06-30 17:43:00,84.3,73.5,29.48,North,-999,-999.0,-999.0,70,-99.99,,,-99.99,,2013-06-30 21:43:00,
2013-06-30 17:48:00,84.5,73.9,29.48,North,-999,-999.0,-999.0,70,-99.99,,,-99.99,,2013-06-30 21:48:00,
2013-06-30 17:53:00,84.9,74.3,29.48,North,-999,-999.0,-999.0,70,-99.99,,,-99.99,,2013-06-30 21:53:00,
2013-06-30 17:58:00,84.9,74.1,29.48,North,-999,-999.0,-999.0,69,-99.99,,,-99.99,,2013-06-30 21:58:00,
2013-06-30 18:03:00,84.7,73.4,29.48,North,-999,-999.0,-999.0,68,-99.99,,,-99.99,,2013-06-30 22:03:00,
2013-06-30 18:08:00,84.0,72.0,29.49,North,-999,-999.0,-999.0,66,-99.99,,,-99.99,,2013-06-30 22:08:00,
2013-06-30 18:09:00,84.0,72.1,29.49,North,-999,-999.0,-999.0,66,-99.99,,,-99.99,,2013-06-30 22:09:00,
2013-06-30 18:14:00,83.3,71.8,29.49,North,-999,-999.0,-999.0,67,-99.99,,,-99.99,,2013-06-30 22:14:00,
2013-06-30 18:19:00,83.1,71.7,29.49,North,-999,-999.0,-999.0,68,-99.99,,,-99.99,,2013-06-30 22:19:00,
2013-06-30 18:24:00,82.7,71.4,29.49,North,-999,-999.0,-999.0,68,-99.99,,,-99.99,,2013-06-30 22:24:00,
2013-06-30 18:29:00,82.5,71.6,29.50,North,-999,-999.0,-999.0,69,-99.99,,,-99.99,,2013-06-30 22:29:00,
2013-06-30 18:34:00,82.4,71.6,29.50,North,-999,-999.0,-999.0,69,-99.99,,,-99.99,,2013-06-30 22:34:00,
2013-06-30 18:39:00,82.2,71.9,29.50,North,-999,-999.0,-999.0,71,-99.99,,,-99.99,,2013-06-30 22:39:00,
2013-06-30 18:44:00,82.2,72.6,29.50,North,-999,-999.0,-999.0,73,-99.99,,,-99.99,,2013-06-30 22:44:00,
2013-06-30 18:49:00,81.8,72.6,29.51,North,-999,-999.0,-999.0,74,-99.99,,,-99.99,,2013-06-30 22:49:00,
2013-06-30 18:54:00,81.8,72.8,29.51,North,-999,-999.0,-999.0,75,-99.99,,,-99.99,,2013-06-30 22:54:00,
2013-06-30 18:59:00,81.5,72.8,29.51,North,-999,-999.0,-999.0,75,-99.99,,,-99.99,,2013-06-30 22:59:00,
2013-06-30 19:04:00,81.6,73.2,29.51,North,-999,-999.0,-999.0,76,-99.99,,,-99.99,,2013-06-30 23:04:00,
2013-06-30 19:09:00,81.6,73.2,29.52,North,-999,-999.0,-999.0,76,-99.99,,,-99.99,,2013-06-30 23:09:00,
2013-06-30 19:14:00,81.6,73.3,29.52,North,-999,-999.0,-999.0,76,-99.99,,,-99.99,,2013-06-30 23:14:00,
2013-06-30 19:19:00,81.6,73.4,29.52,North,-999,-999.0,-999.0,77,-99.99,,,-99.99,,2013-06-30 23:19:00,
2013-06-30 19:24:00,81.5,73.7,29.52,North,-999,-999.0,-999.0,78,-99.99,,,-99.99,,2013-06-30 23:24:00,
2013-06-30 19:29:00,81.1,73.0,29.52,North,-999,-999.0,-999.0,77,-99.99,,,-99.99,,2013-06-30 23:29:00,
2013-06-30 19:34:00,81.1,72.9,29.52,North,-999,-999.0,-999.0,77,-99.99,,,-99.99,,2013-06-30 23:34:00,
2013-06-30 19:39:00,80.7,72.3,29.52,North,-999,-999.0,-999.0,76,-99.99,,,-99.99,,2013-06-30 23:39:00,
2013-06-30 19:44:00,80.6,71.8,29.53,North,-999,-999.0,-999.0,75,-99.99,,,-99.99,,2013-06-30 23:44:00,
2013-06-30 19:49:00,80.6,71.8,29.53,North,-999,-999.0,-999.0,75,-99.99,,,-99.99,,2013-06-30 23:49:00,
2013-06-30 19:54:00,80.4,71.7,29.53,North,-999,-999.0,-999.0,75,-99.99,,,-99.99,,2013-06-30 23:54:00,
2013-06-30 19:59:00,80.4,71.8,29.53,North,-999,-999.0,-999.0,76,-99.99,,,-99.99,,2013-06-30 23:59:00,
2013-06-30 20:04:00,80.2,71.7,29.54,North,-999,-999.0,-999.0,76,-99.99,,,-99.99,,2013-07-01 00:04:00,
2013-06-30 20:09:00,80.2,71.7,29.54,North,-999,-999.0,-999.0,76,-99.99,,,-99.99,,2013-07-01 00:09:00,
2013-06-30 20:14:00,80.0,71.6,29.54,North,-999,-999.0,-999.0,76,-99.99,,,-99.99,,2013-07-01 00:14:00,
2013-06-30 20:19:00,80.0,71.7,29.54,North,-999,-999.0,-999.0,76,-99.99,,,-99.99,,2013-07-01 00:19:00,
2013-06-30 20:24:00,79.8,71.7,29.54,North,-999,-999.0,-999.0,77,-99.99,,,-99.99,,2013-07-01 00:24:00,
2013-06-30 20:29:00,79.8,71.8,29.55,North,-999,-999.0,-999.0,77,-99.99,,,-99.99,,2013-07-01 00:29:00,
2013-06-30 20:34:00,79.7,71.9,29.55,North,-999,-999.0,-999.0,78,-99.99,,,-99.99,,2013-07-01 00:34:00,
2013-06-30 20:39:00,79.7,72.2,29.55,North,-999,-999.0,-999.0,79,-99.99,,,-99.99,,2013-07-01 00:39:00,
2013-06-30 20:44:00,79.3,71.9,29.55,North,-999,-999.0,-999.0,79,-99.99,,,-99.99,,2013-07-01 00:44:00,
2013-06-30 20:49:00,79.1,71.9,29.55,North,-999,-999.0,-999.0,80,-99.99,,,-99.99,,2013-07-01 00:49:00,
2013-06-30 20:54:00,79.1,72.2,29.55,North,-999,-999.0,-999.0,80,-99.99,,,-99.99,,2013-07-01 00:54:00,
2013-06-30 20:59:00,79.1,72.3,29.56,North,-999,-999.0,-999.0,81,-99.99,,,-99.99,,2013-07-01 00:59:00,
2013-06-30 21:04:00,78.9,72.2,29.56,North,-999,-999.0,-999.0,81,-99.99,,,-99.99,,2013-07-01 01:04:00,
2013-06-30 21:09:00,78.9,72.3,29.56,North,-999,-999.0,-999.0,81,-99.99,,,-99.99,,2013-07-01 01:09:00,
2013-06-30 21:14:00,78.9,72.2,29.56,North,-999,-999.0,-999.0,81,-99.99,,,-99.99,,2013-07-01 01:14:00,
2013-06-30 21:19:00,78.9,72.1,29.56,North,-999,-999.0,-999.0,81,-99.99,,,-99.99,,2013-07-01 01:19:00,
2013-06-30 21:24:00,78.8,72.3,29.56,North,-999,-999.0,-999.0,81,-99.99,,,-99.99,,2013-07-01 01:24:00,
2013-06-30 21:29:00,78.8,72.3,29.56,North,-999,-999.0,-999.0,81,-99.99,,,-99.99,,2013-07-01 01:29:00,
2013-06-30 21:34:00,78.8,72.3,29.56,North,-999,-999.0,-999.0,81,-99.99,,,-99.99,,2013-07-01 01:34:00,
2013-06-30 21:39:00,78.8,72.3,29.57,North,-999,-999.0,-999.0,81,-99.99,,,-99.99,,2013-07-01 01:39:00,
2013-06-30 21:44:00,78.8,72.4,29.57,North,-999,-999.0,-999.0,82,-99.99,,,-99.99,,2013-07-01 01:44:00,
2013-06-30 21:49:00,78.8,72.5,29.57,North,-999,-999.0,-999.0,82,-99.99,,,-99.99,,2013-07-01 01:49:00,
2013-06-30 21:54:00,78.6,72.2,29.57,North,-999,-999.0,-999.0,82,-99.99,,,-99.99,,2013-07-01 01:54:00,
2013-06-30 21:59:00,78.8,72.5,29.57,North,-999,-999.0,-999.0,82,-99.99,,,-99.99,,2013-07-01 01:59:00,
2013-06-30 22:04:00,78.8,72.4,29.58,North,-999,-999.0,-999.0,82,-99.99,,,-99.99,,2013-07-01 02:04:00,
2013-06-30 22:09:00,78.6,72.2,29.58,North,-999,-999.0,-999.0,82,-99.99,,,-99.99,,2013-07-01 02:09:00,
2013-06-30 22:14:00,78.6,72.1,29.58,North,-999,-999.0,-999.0,81,-99.99,,,-99.99,,2013-07-01 02:14:00,
2013-06-30 22:19:00,78.6,72.2,29.58,North,-999,-999.0,-999.0,82,-99.99,,,-99.99,,2013-07-01 02:19:00,
2013-06-30 22:24:00,78.6,72.1,29.58,North,-999,-999.0,-999.0,81,-99.99,,,-99.99,,2013-07-01 02:24:00,
2013-06-30 22:29:00,78.6,72.1,29.58,North,-999,-999.0,-999.0,81,-99.99,,,-99.99,,2013-07-01 02:29:00,
2013-06-30 22:34:00,78.6,72.1,29.58,North,-999,-999.0,-999.0,81,-99.99,,,-99.99,,2013-07-01 02:34:00,
2013-06-30 22:39:00,78.4,71.9,29.58,North,-999,-999.0,-999.0,81,-99.99,,,-99.99,,2013-07-01 02:39:00,
2013-06-30 22:44:00,78.4,72.2,29.59,North,-999,-999.0,-999.0,82,-99.99,,,-99.99,,2013-07-01 02:44:00,
2013-06-30 22:49:00,78.2,72.9,29.60,North,-999,-999.0,-999.0,85,-99.99,,,-99.99,,2013-07-01 02:49:00,
2013-06-30 22:54:00,77.7,71.6,29.60,North,-999,-999.0,-999.0,82,-99.99,,,-99.99,,2013-07-01 02:54:00,
2013-06-30 22:59:00,77.0,70.8,29.60,North,-999,-999.0,-999.0,82,-99.99,,,-99.99,,2013-07-01 02:59:00,
2013-06-30 23:04:00,75.7,69.9,29.60,North,-999,-999.0,-999.0,83,-99.99,,,-99.99,,2013-07-01 03:04:00,
2013-06-30 23:09:00,75.2,69.6,29.60,North,-999,-999.0,-999.0,84,-99.99,,,-99.99,,2013-07-01 03:09:00,
2013-06-30 23:14:00,74.8,69.3,29.60,North,-999,-999.0,-999.0,84,-99.99,,,-99.99,,2013-07-01 03:14:00,
2013-06-30 23:19:00,74.4,69.2,29.60,North,-999,-999.0,-999.0,85,-99.99,,,-99.99,,2013-07-01 03:19:00,
2013-06-30 23:24:00,74.4,69.4,29.61,North,-999,-999.0,-999.0,86,-99.99,,,-99.99,,2013-07-01 03:24:00,
2013-06-30 23:29:00,74.3,69.6,29.61,North,-999,-999.0,-999.0,86,-99.99,,,-99.99,,2013-07-01 03:29:00,
2013-06-30 23:34:00,74.3,69.6,29.60,North,-999,-999.0,-999.0,86,-99.99,,,-99.99,,2013-07-01 03:34:00,
2013-06-30 23:39:00,74.1,69.4,29.60,North,-999,-999.0,-999.0,86,-99.99,,,-99.99,,2013-07-01 03:39:00,
2013-06-30 23:44:00,74.3,69.8,29.60,North,-999,-999.0,-999.0,87,-99.99,,,-99.99,,2013-07-01 03:44:00,
2013-06-30 23:49:00,74.4,70.1,29.60,North,-999,-999.0,-999.0,87,-99.99,,,-99.99,,2013-07-01 03:49:00,
2013-06-30 23:54:00,74.4,70.2,29.61,North,-999,-999.0,-999.0,88,-99.99,,,-99.99,,2013-07-01 03:54:00,
2013-06-30 23:59:00,74.3,69.9,29.61,North,-999,-999.0,-999.0,87,-99.99,,,-99.99,,2013-07-01 03:59:00,